createdAt,value
2023-05-14T00:00:02.832Z,15.40
2023-05-14T00:05:29.932Z,15.60
2023-05-14T00:10:37.224Z,14.80
2023-05-14T00:15:44.725Z,14.70
2023-05-14T00:20:54.984Z,14.80
2023-05-14T00:26:02.096Z,14.20
2023-05-14T00:31:09.221Z,14.80
2023-05-14T00:36:16.347Z,15.20
2023-05-14T00:41:23.459Z,13.20
2023-05-14T00:46:30.743Z,13.90
2023-05-14T00:51:38.099Z,13.40
2023-05-14T00:56:46.377Z,13.00
2023-05-14T01:01:54.050Z,12.30
2023-05-14T01:07:10.527Z,12.90
2023-05-14T01:12:21.550Z,12.70
2023-05-14T01:17:34.050Z,12.10
2023-05-14T01:22:41.273Z,12.00
2023-05-14T01:27:56.921Z,10.50
2023-05-14T01:33:12.079Z,9.40
2023-05-14T01:38:21.328Z,10.40
2023-05-14T01:43:29.459Z,10.40
2023-05-14T01:48:37.821Z,10.00
2023-05-14T01:53:44.848Z,10.00
2023-05-14T01:58:54.221Z,9.70
2023-05-14T02:04:02.439Z,11.00
2023-05-14T02:09:09.630Z,9.70
2023-05-14T02:14:16.674Z,9.60
2023-05-14T02:19:23.717Z,10.40
2023-05-14T02:24:30.827Z,9.80
2023-05-14T02:29:38.064Z,10.00
2023-05-14T02:34:45.069Z,10.50
2023-05-14T02:39:52.420Z,10.80
2023-05-14T02:44:59.785Z,10.90
2023-05-14T02:50:08.131Z,11.40
2023-05-14T02:55:15.470Z,10.90
2023-05-14T03:00:23.078Z,11.10
2023-05-14T03:05:30.600Z,12.40
2023-05-14T03:10:37.728Z,11.50
2023-05-14T03:15:44.837Z,13.20
2023-05-14T03:20:52.104Z,13.40
2023-05-14T03:25:59.137Z,14.20
2023-05-14T03:31:06.353Z,13.90
2023-05-14T03:36:13.698Z,12.70
2023-05-14T03:41:21.980Z,14.20
2023-05-14T03:46:28.990Z,13.80
2023-05-14T03:51:36.559Z,13.00
2023-05-14T03:56:44.901Z,12.90
2023-05-14T04:01:53.658Z,14.00
2023-05-14T04:07:00.667Z,13.30
2023-05-14T04:12:10.617Z,14.60
2023-05-14T04:17:17.575Z,14.40
2023-05-14T04:22:24.827Z,15.50
2023-05-14T04:27:31.839Z,14.10
2023-05-14T04:32:39.479Z,16.00
2023-05-14T04:37:46.377Z,15.40
2023-05-14T04:42:53.364Z,17.00
2023-05-14T04:48:00.497Z,14.60
2023-05-14T04:53:07.550Z,14.80
2023-05-14T04:58:14.521Z,15.20
2023-05-14T05:03:21.549Z,13.60
2023-05-14T05:08:28.978Z,13.40
2023-05-14T05:13:35.936Z,13.50
2023-05-14T05:18:44.645Z,13.00
2023-05-14T05:23:51.748Z,11.50
2023-05-14T05:28:58.881Z,12.60
2023-05-14T05:34:06.054Z,10.90
2023-05-14T05:39:13.027Z,10.80
2023-05-14T05:44:19.999Z,11.80
2023-05-14T05:49:27.168Z,11.00
2023-05-14T05:54:34.310Z,10.30
2023-05-14T05:59:41.291Z,10.00
2023-05-14T06:04:48.340Z,9.90
2023-05-14T06:09:55.453Z,8.90
2023-05-14T06:15:02.435Z,8.40
2023-05-14T06:20:11.298Z,7.80
2023-05-14T06:25:18.562Z,8.00
2023-05-14T06:30:25.985Z,7.10
2023-05-14T06:35:34.743Z,6.30
2023-05-14T06:40:45.720Z,6.90
2023-05-14T06:50:58.336Z,7.00
2023-05-14T06:56:05.989Z,6.70
2023-05-14T07:01:13.140Z,7.00
2023-05-14T07:06:21.164Z,5.30
2023-05-14T07:11:28.070Z,5.20
2023-05-14T07:16:35.127Z,5.00
2023-05-14T07:21:42.157Z,4.20
2023-05-14T07:26:49.218Z,3.10
2023-05-14T07:31:56.378Z,2.60
2023-05-14T07:37:04.052Z,3.80
2023-05-14T07:42:12.550Z,3.00
2023-05-14T07:47:24.128Z,3.40
2023-05-14T07:52:31.169Z,3.90
2023-05-14T07:57:38.377Z,3.80
2023-05-14T08:02:45.578Z,3.60
2023-05-14T08:07:52.578Z,3.10
2023-05-14T08:12:59.539Z,3.20
2023-05-14T08:18:07.430Z,3.60
2023-05-14T08:23:14.458Z,3.40
2023-05-14T08:28:21.673Z,2.90
2023-05-14T08:33:29.053Z,3.00
2023-05-14T08:38:36.123Z,3.20
2023-05-14T08:43:59.021Z,2.80
2023-05-14T08:49:16.890Z,3.00
2023-05-14T08:54:26.302Z,2.70
2023-05-14T08:59:33.374Z,2.40
2023-05-14T09:04:41.102Z,2.70
2023-05-14T09:09:49.252Z,2.00
2023-05-14T09:14:56.260Z,2.30
2023-05-14T09:20:05.116Z,2.50
2023-05-14T09:25:13.385Z,2.70
2023-05-14T09:30:20.668Z,2.00
2023-05-14T09:35:27.795Z,1.90
2023-05-14T09:40:34.984Z,2.50
2023-05-14T09:45:43.650Z,2.40
2023-05-14T09:50:52.210Z,2.00
2023-05-14T09:55:59.224Z,3.10
2023-05-14T10:01:07.390Z,2.10
2023-05-14T10:06:19.148Z,2.10
2023-05-14T10:11:29.767Z,2.60
2023-05-14T10:16:39.239Z,2.20
2023-05-14T10:21:49.978Z,2.60
2023-05-14T10:26:58.806Z,2.30
2023-05-14T10:32:10.158Z,1.90
2023-05-14T10:37:18.518Z,2.00
2023-05-14T10:42:28.335Z,1.90
2023-05-14T10:47:36.888Z,1.90
2023-05-14T10:52:45.749Z,1.40
2023-05-14T10:57:53.552Z,1.90
2023-05-14T11:03:01.785Z,2.00
2023-05-14T11:08:10.329Z,1.70
2023-05-14T11:13:18.923Z,1.80
2023-05-14T11:18:33.658Z,3.60
2023-05-14T11:23:41.134Z,2.10
2023-05-14T11:28:48.108Z,2.50
2023-05-14T11:33:56.357Z,2.00
2023-05-14T11:39:03.210Z,2.30
2023-05-14T11:44:11.792Z,1.70
2023-05-14T11:49:18.794Z,1.60
2023-05-14T11:54:28.784Z,2.10
2023-05-14T11:59:35.926Z,1.80
2023-05-14T12:04:43.943Z,1.70
2023-05-14T12:09:51.560Z,1.90
2023-05-14T12:15:00.696Z,2.30
2023-05-14T12:20:12.618Z,1.40
2023-05-14T12:25:19.844Z,2.00
2023-05-14T12:30:26.855Z,2.40
2023-05-14T12:35:33.949Z,2.20
2023-05-14T12:40:41.000Z,2.70
2023-05-14T12:45:48.034Z,1.50
2023-05-14T12:50:55.078Z,2.00
2023-05-14T12:56:02.431Z,2.90
2023-05-14T13:01:09.448Z,2.10
2023-05-14T13:06:16.529Z,2.80
2023-05-14T13:11:23.528Z,3.10
2023-05-14T13:16:31.387Z,2.90
2023-05-14T13:21:38.639Z,2.80
2023-05-14T13:26:45.660Z,3.80
2023-05-14T13:31:53.080Z,3.20
2023-05-14T13:37:00.130Z,3.00
2023-05-14T13:42:07.683Z,4.30
2023-05-14T13:47:14.715Z,4.00
2023-05-14T13:52:21.768Z,2.90
2023-05-14T13:57:28.695Z,4.20
2023-05-14T14:02:35.848Z,2.90
2023-05-14T14:07:42.865Z,3.00
2023-05-14T14:12:50.221Z,3.20
2023-05-14T14:17:57.282Z,3.10
2023-05-14T14:23:04.137Z,4.00
2023-05-14T14:28:11.250Z,3.80
2023-05-14T14:33:18.193Z,3.90
2023-05-14T14:38:25.515Z,5.00
2023-05-14T14:43:32.572Z,4.30
2023-05-14T14:48:40.050Z,4.80
2023-05-14T14:53:46.939Z,5.60
2023-05-14T14:58:53.967Z,8.60
2023-05-14T15:04:00.838Z,5.90
2023-05-14T15:09:09.253Z,4.90
2023-05-14T15:14:16.195Z,4.00
2023-05-14T15:19:23.161Z,4.90
2023-05-14T15:24:30.232Z,4.40
2023-05-14T15:29:37.247Z,4.00
2023-05-14T15:34:44.156Z,5.20
2023-05-14T15:39:51.122Z,4.20
2023-05-14T15:44:58.069Z,5.10
2023-05-14T15:50:05.582Z,5.40
2023-05-14T15:55:13.267Z,5.10
2023-05-14T16:00:21.460Z,6.30
2023-05-14T16:05:28.560Z,7.10
2023-05-14T16:10:35.510Z,5.10
2023-05-14T16:15:43.672Z,4.80
2023-05-14T16:20:50.598Z,6.50
2023-05-14T16:25:57.957Z,5.60
2023-05-14T16:31:05.057Z,5.20
2023-05-14T16:36:12.246Z,6.20
2023-05-14T16:41:19.354Z,5.60
2023-05-14T16:46:28.225Z,6.90
2023-05-14T16:51:38.381Z,6.50
2023-05-14T16:56:48.301Z,6.10
2023-05-14T17:01:57.683Z,8.00
2023-05-14T17:07:04.975Z,5.60
2023-05-14T17:12:13.680Z,5.30
2023-05-14T17:17:20.952Z,5.80
2023-05-14T17:22:28.566Z,6.60
2023-05-14T17:27:36.322Z,8.00
2023-05-14T17:32:43.351Z,7.00
2023-05-14T17:37:50.449Z,7.50
2023-05-14T17:42:57.498Z,5.80
2023-05-14T17:48:04.580Z,6.30
2023-05-14T17:53:11.533Z,6.90
2023-05-14T17:58:18.796Z,5.60
2023-05-14T18:03:25.918Z,5.50
2023-05-14T18:08:33.154Z,7.90
2023-05-14T18:13:40.155Z,6.30
2023-05-14T18:18:49.736Z,7.30
2023-05-14T18:23:57.139Z,6.20
2023-05-14T18:29:04.260Z,6.10
2023-05-14T18:34:11.951Z,8.20
2023-05-14T18:39:19.931Z,7.00
2023-05-14T18:44:27.169Z,7.60
2023-05-14T18:49:34.522Z,6.70
2023-05-14T18:54:41.522Z,6.30
2023-05-14T18:59:48.986Z,5.70
2023-05-14T19:04:56.145Z,6.20
2023-05-14T19:10:03.793Z,6.20
2023-05-14T19:15:12.189Z,6.00
2023-05-14T19:20:19.170Z,7.60
2023-05-14T19:25:26.436Z,6.30
2023-05-14T19:30:33.679Z,9.00
2023-05-14T19:35:40.751Z,8.80
2023-05-14T19:40:47.686Z,8.00
2023-05-14T19:45:54.808Z,7.90
2023-05-14T19:51:01.938Z,7.80
2023-05-14T19:56:10.439Z,7.30
2023-05-14T20:01:17.569Z,6.50
2023-05-14T20:06:24.733Z,7.10
2023-05-14T20:11:31.823Z,7.90
2023-05-14T20:16:39.560Z,7.90
2023-05-14T20:21:46.623Z,9.10
2023-05-14T20:26:53.686Z,10.00
2023-05-14T20:32:00.669Z,9.90
2023-05-14T20:37:08.142Z,11.20
2023-05-14T20:42:15.157Z,9.60
2023-05-14T20:47:24.964Z,11.10
2023-05-14T20:52:31.945Z,11.30
2023-05-14T20:57:40.007Z,11.20
2023-05-14T21:02:46.935Z,11.30
2023-05-14T21:07:54.043Z,11.70
2023-05-14T21:13:01.045Z,15.00
2023-05-14T21:18:08.094Z,12.70
2023-05-14T21:23:15.069Z,12.80
2023-05-14T21:28:22.281Z,17.50
2023-05-14T21:33:29.241Z,16.80
2023-05-14T21:38:36.381Z,17.00
2023-05-14T21:43:45.187Z,16.90
2023-05-14T21:48:52.360Z,16.50
2023-05-14T21:53:59.376Z,16.30
2023-05-14T21:59:06.459Z,16.60
2023-05-14T22:04:13.406Z,18.20
2023-05-14T22:09:20.359Z,17.00
2023-05-14T22:14:27.688Z,15.70
2023-05-14T22:19:34.698Z,18.30
2023-05-14T22:24:41.645Z,18.20
2023-05-14T22:29:50.048Z,18.30
2023-05-14T22:34:56.962Z,17.30
2023-05-14T22:40:11.789Z,19.10
2023-05-14T22:45:18.809Z,19.10
2023-05-14T22:50:25.674Z,19.50
2023-05-14T22:55:33.258Z,20.50
2023-05-14T23:00:40.406Z,19.60
2023-05-14T23:05:47.412Z,18.40
2023-05-14T23:10:54.406Z,20.30
2023-05-14T23:16:01.351Z,20.60
2023-05-14T23:21:08.499Z,21.40
2023-05-14T23:26:15.701Z,20.90
2023-05-14T23:31:23.777Z,22.60
2023-05-14T23:36:31.523Z,22.20
2023-05-14T23:41:38.573Z,22.50
2023-05-14T23:46:45.640Z,24.00
2023-05-14T23:51:52.876Z,21.70
2023-05-14T23:56:59.891Z,23.50
